createdAt,value
2022-09-16T00:00:15.459Z,6.13
2022-09-16T00:05:46.148Z,5.68
2022-09-16T00:10:50.361Z,6.53
2022-09-16T00:15:54.359Z,7.38
2022-09-16T00:20:59.987Z,6.50
2022-09-16T00:26:04.873Z,7.32
2022-09-16T00:31:09.025Z,6.73
2022-09-16T00:36:16.356Z,8.15
2022-09-16T00:41:22.653Z,7.57
2022-09-16T00:46:33.764Z,7.60
2022-09-16T00:51:43.089Z,9.10
2022-09-16T00:56:50.602Z,8.38
2022-09-16T01:01:55.928Z,9.93
2022-09-16T01:07:01.881Z,9.80
2022-09-16T01:12:06.664Z,10.75
2022-09-16T01:17:20.814Z,11.50
2022-09-16T01:22:47.516Z,11.57
2022-09-16T01:28:29.951Z,11.75
2022-09-16T01:33:47.521Z,11.38
2022-09-16T01:39:03.635Z,12.95
2022-09-16T01:44:18.925Z,12.18
2022-09-16T01:49:32.319Z,13.30
2022-09-16T01:54:42.944Z,13.45
2022-09-16T01:59:55.460Z,12.35
2022-09-16T02:05:04.988Z,12.02
2022-09-16T02:10:14.765Z,12.40
2022-09-16T02:15:22.421Z,12.95
2022-09-16T02:20:30.759Z,11.10
2022-09-16T02:25:39.626Z,11.80
2022-09-16T02:30:47.265Z,11.35
2022-09-16T02:35:55.475Z,12.15
2022-09-16T02:41:01.809Z,11.68
2022-09-16T02:46:12.814Z,12.00
2022-09-16T02:51:29.266Z,12.52
2022-09-16T02:56:35.930Z,11.75
2022-09-16T03:01:42.216Z,12.90
2022-09-16T03:06:47.941Z,11.18
2022-09-16T03:12:06.655Z,11.27
2022-09-16T03:17:28.376Z,11.95
2022-09-16T03:22:48.899Z,11.57
2022-09-16T03:27:58.833Z,12.07
2022-09-16T03:33:08.739Z,12.55
2022-09-16T03:38:15.302Z,11.15
2022-09-16T03:43:19.300Z,12.35
2022-09-16T03:48:23.288Z,12.93
2022-09-16T03:53:28.492Z,12.63
2022-09-16T03:58:32.483Z,13.43
2022-09-16T04:03:37.580Z,14.20
2022-09-16T04:08:44.489Z,12.93
2022-09-16T04:13:48.965Z,14.55
2022-09-16T04:18:52.871Z,13.73
2022-09-16T04:23:58.029Z,12.25
2022-09-16T04:29:01.877Z,12.27
2022-09-16T04:34:06.595Z,11.10
2022-09-16T04:39:12.385Z,10.82
2022-09-16T04:44:16.271Z,10.43
2022-09-16T04:49:21.694Z,10.00
2022-09-16T04:54:26.990Z,9.23
2022-09-16T04:59:30.892Z,9.52
2022-09-16T05:04:34.700Z,8.90
2022-09-16T05:09:40.176Z,8.50
2022-09-16T05:14:44.018Z,8.35
2022-09-16T05:19:48.132Z,7.80
2022-09-16T05:24:53.767Z,7.85
2022-09-16T05:29:57.727Z,8.95
2022-09-16T05:35:01.932Z,7.55
2022-09-16T05:40:09.173Z,8.05
2022-09-16T05:45:13.125Z,7.32
2022-09-16T05:50:17.270Z,8.73
2022-09-16T05:55:22.678Z,7.85
2022-09-16T06:00:26.580Z,8.00
2022-09-16T06:05:31.833Z,6.68
2022-09-16T06:10:40.186Z,6.82
2022-09-16T06:15:50.076Z,6.38
2022-09-16T06:20:55.710Z,6.43
2022-09-16T06:26:05.634Z,5.00
2022-09-16T06:31:13.480Z,4.95
2022-09-16T06:36:22.229Z,4.32
2022-09-16T06:41:28.867Z,4.72
2022-09-16T06:46:32.910Z,4.15
2022-09-16T06:51:37.322Z,3.97
2022-09-16T06:56:43.064Z,3.60
2022-09-16T07:01:47.350Z,3.78
2022-09-16T07:07:08.694Z,3.72
2022-09-16T07:12:18.904Z,3.92
2022-09-16T07:17:27.262Z,4.18
2022-09-16T07:22:32.721Z,4.22
2022-09-16T07:27:38.104Z,4.82
2022-09-16T07:32:42.023Z,3.35
2022-09-16T07:37:45.840Z,4.13
2022-09-16T07:42:51.597Z,2.72
2022-09-16T07:47:55.723Z,2.95
2022-09-16T07:53:00.281Z,2.38
2022-09-16T07:58:05.572Z,3.20
2022-09-16T08:03:10.054Z,3.13
2022-09-16T08:08:15.294Z,2.83
2022-09-16T08:13:20.754Z,2.85
2022-09-16T08:18:25.204Z,3.20
2022-09-16T08:23:29.281Z,3.28
2022-09-16T08:28:45.161Z,3.70
2022-09-16T08:33:55.412Z,3.40
2022-09-16T08:38:59.385Z,3.08
2022-09-16T08:44:16.687Z,3.08
2022-09-16T08:49:29.446Z,2.80
2022-09-16T08:54:43.598Z,2.85
2022-09-16T08:59:52.607Z,3.10
2022-09-16T09:04:57.006Z,3.53
2022-09-16T09:10:12.430Z,3.10
2022-09-16T09:15:30.568Z,2.30
2022-09-16T09:20:47.184Z,3.10
2022-09-16T09:25:59.247Z,2.30
2022-09-16T09:31:11.220Z,2.60
2022-09-16T09:36:38.213Z,2.53
2022-09-16T09:41:47.033Z,2.50
2022-09-16T09:46:57.762Z,2.58
2022-09-16T09:52:08.174Z,2.67
2022-09-16T09:57:22.752Z,2.42
2022-09-16T10:02:28.265Z,2.30
2022-09-16T10:07:32.734Z,2.58
2022-09-16T10:12:37.554Z,2.35
2022-09-16T10:17:50.533Z,2.40
2022-09-16T10:22:59.729Z,2.22
2022-09-16T10:28:07.240Z,2.85
2022-09-16T10:33:18.768Z,2.58
2022-09-16T10:38:24.570Z,2.03
2022-09-16T10:43:30.786Z,2.58
2022-09-16T10:48:37.681Z,2.30
2022-09-16T10:53:47.684Z,1.85
2022-09-16T10:59:03.496Z,2.38
2022-09-16T11:04:43.210Z,2.33
2022-09-16T11:09:58.769Z,2.33
2022-09-16T11:15:12.374Z,2.38
2022-09-16T11:24:03.231Z,2.83
2022-09-16T11:29:34.943Z,2.80
2022-09-16T11:34:54.818Z,2.40
2022-09-16T11:40:14.314Z,3.03
2022-09-16T11:45:38.090Z,2.42
2022-09-16T11:50:50.791Z,2.75
2022-09-16T11:56:01.459Z,2.20
2022-09-16T12:01:15.941Z,2.25
2022-09-16T12:06:23.831Z,2.72
2022-09-16T12:11:34.057Z,2.30
2022-09-16T12:16:43.736Z,2.35
2022-09-16T12:21:57.487Z,2.80
2022-09-16T12:27:10.652Z,2.40
2022-09-16T12:32:19.652Z,2.75
2022-09-16T12:37:35.885Z,3.30
2022-09-16T12:43:11.859Z,2.88
2022-09-16T12:54:02.610Z,4.32
2022-09-16T12:59:36.567Z,2.92
2022-09-16T13:04:44.333Z,3.20
2022-09-16T13:09:48.867Z,2.70
2022-09-16T13:14:57.439Z,3.05
2022-09-16T13:20:13.611Z,3.00
2022-09-16T13:25:24.341Z,2.70
2022-09-16T13:30:35.823Z,3.17
2022-09-16T13:35:42.364Z,2.78
2022-09-16T13:40:55.213Z,2.42
2022-09-16T13:46:07.400Z,3.17
2022-09-16T13:51:17.887Z,2.88
2022-09-16T13:56:44.013Z,3.90
2022-09-16T14:02:00.425Z,3.25
2022-09-16T14:07:20.853Z,3.10
2022-09-16T14:12:36.691Z,3.20
2022-09-16T14:22:45.622Z,2.72
2022-09-16T14:27:49.539Z,3.50
2022-09-16T14:32:53.535Z,3.10
2022-09-16T14:38:01.984Z,3.33
2022-09-16T14:43:08.385Z,3.10
2022-09-16T14:48:16.069Z,3.03
2022-09-16T14:53:35.926Z,3.33
2022-09-16T14:58:41.619Z,3.70
2022-09-16T15:03:50.524Z,3.35
2022-09-16T15:09:01.496Z,3.47
2022-09-16T15:14:08.515Z,3.85
2022-09-16T15:19:21.421Z,4.40
2022-09-16T15:24:31.281Z,3.53
2022-09-16T15:29:38.721Z,3.70
2022-09-16T15:34:44.212Z,4.25
2022-09-16T15:39:49.571Z,3.80
2022-09-16T15:44:54.828Z,3.75
2022-09-16T15:50:04.308Z,3.47
2022-09-16T15:55:11.543Z,3.35
2022-09-16T16:00:16.539Z,3.33
2022-09-16T16:05:23.267Z,3.25
2022-09-16T16:10:30.281Z,3.70
2022-09-16T16:15:36.874Z,3.38
2022-09-16T16:20:41.588Z,4.00
2022-09-16T16:25:48.309Z,4.03
2022-09-16T16:30:52.424Z,4.07
2022-09-16T16:35:56.501Z,4.32
2022-09-16T16:41:01.833Z,5.30
2022-09-16T16:46:06.119Z,4.88
2022-09-16T16:51:13.764Z,6.35
2022-09-16T16:56:19.020Z,6.32
2022-09-16T17:01:22.899Z,5.15
2022-09-16T17:06:26.808Z,4.25
2022-09-16T17:11:32.983Z,5.03
2022-09-16T17:16:37.076Z,5.00
2022-09-16T17:21:41.294Z,5.72
2022-09-16T17:26:47.576Z,4.75
2022-09-16T17:31:51.371Z,5.47
2022-09-16T17:36:56.400Z,6.07
2022-09-16T17:42:01.692Z,7.87
2022-09-16T17:47:05.674Z,8.10
2022-09-16T17:52:09.596Z,8.32
2022-09-16T17:57:14.758Z,8.23
2022-09-16T18:02:18.747Z,10.98
2022-09-16T18:07:22.588Z,10.50
2022-09-16T18:12:28.889Z,7.18
2022-09-16T18:17:32.683Z,8.57
2022-09-16T18:22:36.507Z,6.95
2022-09-16T18:27:44.176Z,5.45
2022-09-16T18:32:48.391Z,6.05
2022-09-16T18:37:52.185Z,6.18
2022-09-16T18:42:57.493Z,4.93
2022-09-16T18:48:01.281Z,5.07
2022-09-16T18:53:05.303Z,6.13
2022-09-16T18:58:10.576Z,7.43
2022-09-16T19:03:14.931Z,7.53
2022-09-16T19:08:21.005Z,9.75
2022-09-16T19:13:26.135Z,10.65
2022-09-16T19:18:29.939Z,10.30
2022-09-16T19:23:34.090Z,9.48
2022-09-16T19:28:40.574Z,9.30
2022-09-16T19:33:44.796Z,9.68
2022-09-16T19:38:49.930Z,7.90
2022-09-16T19:43:57.586Z,7.03
2022-09-16T19:49:01.918Z,6.72
2022-09-16T19:54:06.366Z,6.68
2022-09-16T19:59:11.584Z,5.65
2022-09-16T20:04:19.795Z,6.45
2022-09-16T20:09:23.992Z,6.35
2022-09-16T20:14:34.085Z,5.97
2022-09-16T20:19:37.936Z,5.07
2022-09-16T20:24:42.123Z,5.20
2022-09-16T20:29:48.022Z,6.18
2022-09-16T20:39:56.580Z,5.65
2022-09-16T20:45:02.010Z,5.57
2022-09-16T20:50:06.912Z,6.57
2022-09-16T20:55:11.437Z,5.88
2022-09-16T21:00:17.715Z,6.75
2022-09-16T21:05:23.977Z,6.07
2022-09-16T21:10:28.672Z,6.03
2022-09-16T21:15:35.773Z,5.78
2022-09-16T21:20:39.918Z,6.55
2022-09-16T21:25:44.373Z,5.63
2022-09-16T21:30:49.618Z,5.70
2022-09-16T21:35:55.714Z,5.20
2022-09-16T21:41:02.404Z,5.22
2022-09-16T21:46:12.609Z,4.57
2022-09-16T21:51:18.543Z,4.60
2022-09-16T21:56:24.563Z,4.95
2022-09-16T22:01:31.699Z,5.30
2022-09-16T22:06:35.814Z,5.20
2022-09-16T22:11:41.808Z,5.03
2022-09-16T22:16:47.274Z,5.63
2022-09-16T22:21:53.265Z,5.50
2022-09-16T22:26:57.119Z,6.05
2022-09-16T22:32:02.635Z,5.93
2022-09-16T22:37:06.375Z,5.03
2022-09-16T22:42:10.313Z,5.65
2022-09-16T22:47:15.495Z,5.88
2022-09-16T22:52:19.319Z,5.65
2022-09-16T22:57:23.152Z,5.70
2022-09-16T23:02:30.107Z,7.47
2022-09-16T23:07:33.918Z,6.00
2022-09-16T23:12:37.803Z,6.20
2022-09-16T23:17:43.098Z,5.35
2022-09-16T23:22:47.037Z,5.57
2022-09-16T23:27:51.399Z,4.97
2022-09-16T23:32:56.818Z,4.63
2022-09-16T23:38:00.637Z,5.22
2022-09-16T23:43:04.506Z,5.15
2022-09-16T23:48:10.033Z,5.45
2022-09-16T23:53:14.217Z,5.10
2022-09-16T23:58:18.666Z,5.43
